sensor_id;sensor_type;location;lat;lon;timestamp;pressure;altitude;pressure_sealevel;temperature;humidity
43878;BME280;29815;48.184;11.268;2022-10-01T00:02:15;95384.44;;;8.31;100.00
43878;BME280;29815;48.184;11.268;2022-10-01T00:04:44;95378.84;;;8.33;100.00
43878;BME280;29815;48.184;11.268;2022-10-01T00:07:13;95374.03;;;8.35;100.00
43878;BME280;29815;48.184;11.268;2022-10-01T00:09:44;95375.41;;;8.37;100.00
43878;BME280;29815;48.184;11.268;2022-10-01T00:12:14;95381.31;;;8.39;100.00
43878;BME280;29815;48.184;11.268;2022-10-01T00:14:43;95377.03;;;8.38;100.00
43878;BME280;29815;48.184;11.268;2022-10-01T00:17:12;95384.81;;;8.40;100.00
43878;BME280;29815;48.184;11.268;2022-10-01T00:19:41;95382.66;;;8.42;100.00
43878;BME280;29815;48.184;11.268;2022-10-01T00:22:11;95386.41;;;8.41;100.00
43878;BME280;29815;48.184;11.268;2022-10-01T00:24:41;95388.03;;;8.42;100.00
43878;BME280;29815;48.184;11.268;2022-10-01T00:27:12;95388.59;;;8.44;100.00
43878;BME280;29815;48.184;11.268;2022-10-01T00:29:41;95394.75;;;8.44;100.00
43878;BME280;29815;48.184;11.268;2022-10-01T00:32:11;95395.81;;;8.43;100.00
43878;BME280;29815;48.184;11.268;2022-10-01T00:34:41;95388.59;;;8.44;100.00
43878;BME280;29815;48.184;11.268;2022-10-01T00:37:10;95393.69;;;8.45;100.00
43878;BME280;29815;48.184;11.268;2022-10-01T00:39:39;95388.31;;;8.45;100.00
43878;BME280;29815;48.184;11.268;2022-10-01T00:42:20;95383.50;;;8.47;100.00
43878;BME280;29815;48.184;11.268;2022-10-01T00:44:50;95369.28;;;8.47;100.00
43878;BME280;29815;48.184;11.268;2022-10-01T00:47:24;95370.09;;;8.47;100.00
43878;BME280;29815;48.184;11.268;2022-10-01T00:49:57;95360.97;;;8.48;100.00
43878;BME280;29815;48.184;11.268;2022-10-01T00:52:30;95364.44;;;8.49;100.00
43878;BME280;29815;48.184;11.268;2022-10-01T00:55:04;95363.94;;;8.47;100.00
43878;BME280;29815;48.184;11.268;2022-10-01T00:57:37;95362.31;;;8.46;100.00
43878;BME280;29815;48.184;11.268;2022-10-01T01:00:08;95365.25;;;8.44;100.00
43878;BME280;29815;48.184;11.268;2022-10-01T01:02:40;95367.09;;;8.39;100.00
43878;BME280;29815;48.184;11.268;2022-10-01T01:05:09;95361.13;;;8.32;100.00
43878;BME280;29815;48.184;11.268;2022-10-01T01:07:41;95363.22;;;8.25;100.00
43878;BME280;29815;48.184;11.268;2022-10-01T01:10:13;95364.53;;;8.17;100.00
43878;BME280;29815;48.184;11.268;2022-10-01T01:12:52;95361.00;;;8.11;100.00
43878;BME280;29815;48.184;11.268;2022-10-01T01:15:30;95370.63;;;8.07;100.00
43878;BME280;29815;48.184;11.268;2022-10-01T01:18:05;95364.16;;;8.03;100.00
43878;BME280;29815;48.184;11.268;2022-10-01T01:21:01;95367.34;;;8.00;100.00
43878;BME280;29815;48.184;11.268;2022-10-01T01:27:24;95365.94;;;7.88;100.00
43878;BME280;29815;48.184;11.268;2022-10-01T01:29:58;95367.53;;;7.84;100.00
43878;BME280;29815;48.184;11.268;2022-10-01T01:32:37;95364.25;;;7.76;100.00
43878;BME280;29815;48.184;11.268;2022-10-01T01:35:16;95368.19;;;7.69;100.00
43878;BME280;29815;48.184;11.268;2022-10-01T01:37:50;95365.50;;;7.64;100.00
43878;BME280;29815;48.184;11.268;2022-10-01T01:40:22;95365.97;;;7.56;100.00
43878;BME280;29815;48.184;11.268;2022-10-01T01:42:52;95369.16;;;7.53;100.00
43878;BME280;29815;48.184;11.268;2022-10-01T01:45:25;95366.16;;;7.49;100.00
43878;BME280;29815;48.184;11.268;2022-10-01T01:47:57;95361.88;;;7.48;100.00
43878;BME280;29815;48.184;11.268;2022-10-01T01:50:30;95372.84;;;7.46;100.00
43878;BME280;29815;48.184;11.268;2022-10-01T01:53:02;95365.63;;;7.47;100.00
43878;BME280;29815;48.184;11.268;2022-10-01T01:55:31;95364.03;;;7.51;100.00
43878;BME280;29815;48.184;11.268;2022-10-01T01:58:03;95367.03;;;7.55;100.00
43878;BME280;29815;48.184;11.268;2022-10-01T02:00:35;95357.13;;;7.55;100.00
43878;BME280;29815;48.184;11.268;2022-10-01T02:03:04;95363.84;;;7.58;100.00
43878;BME280;29815;48.184;11.268;2022-10-01T02:05:36;95361.72;;;7.60;100.00
43878;BME280;29815;48.184;11.268;2022-10-01T02:08:22;95359.28;;;7.58;100.00
43878;BME280;29815;48.184;11.268;2022-10-01T02:11:13;95359.53;;;7.57;100.00
43878;BME280;29815;48.184;11.268;2022-10-01T02:13:50;95358.19;;;7.54;100.00
43878;BME280;29815;48.184;11.268;2022-10-01T02:16:32;95358.38;;;7.47;100.00
43878;BME280;29815;48.184;11.268;2022-10-01T02:19:11;95352.44;;;7.40;100.00
43878;BME280;29815;48.184;11.268;2022-10-01T02:21:50;95353.97;;;7.31;100.00
43878;BME280;29815;48.184;11.268;2022-10-01T02:24:27;95354.16;;;7.25;100.00
43878;BME280;29815;48.184;11.268;2022-10-01T02:27:07;95345.03;;;7.21;100.00
43878;BME280;29815;48.184;11.268;2022-10-01T02:29:38;95340.44;;;7.16;100.00
43878;BME280;29815;48.184;11.268;2022-10-01T02:32:09;95344.94;;;7.10;100.00
43878;BME280;29815;48.184;11.268;2022-10-01T02:34:40;95340.59;;;7.04;100.00
43878;BME280;29815;48.184;11.268;2022-10-01T02:37:29;95343.47;;;6.98;100.00
43878;BME280;29815;48.184;11.268;2022-10-01T02:40:00;95338.06;;;6.93;100.00
43878;BME280;29815;48.184;11.268;2022-10-01T02:42:31;95336.63;;;6.85;100.00
43878;BME280;29815;48.184;11.268;2022-10-01T02:45:03;95328.03;;;6.78;100.00
43878;BME280;29815;48.184;11.268;2022-10-01T02:47:36;95323.44;;;6.73;100.00
43878;BME280;29815;48.184;11.268;2022-10-01T02:50:10;95322.25;;;6.64;100.00
43878;BME280;29815;48.184;11.268;2022-10-01T02:52:41;95325.09;;;6.58;100.00
43878;BME280;29815;48.184;11.268;2022-10-01T02:55:16;95325.00;;;6.48;100.00
43878;BME280;29815;48.184;11.268;2022-10-01T02:57:47;95321.69;;;6.40;100.00
43878;BME280;29815;48.184;11.268;2022-10-01T03:00:17;95326.41;;;6.33;100.00
43878;BME280;29815;48.184;11.268;2022-10-01T03:02:49;95326.06;;;6.25;100.00
43878;BME280;29815;48.184;11.268;2022-10-01T03:05:19;95325.19;;;6.19;100.00
43878;BME280;29815;48.184;11.268;2022-10-01T03:07:48;95336.84;;;6.13;100.00
43878;BME280;29815;48.184;11.268;2022-10-01T03:10:17;95333.06;;;6.09;100.00
43878;BME280;29815;48.184;11.268;2022-10-01T03:12:46;95332.16;;;6.03;100.00
43878;BME280;29815;48.184;11.268;2022-10-01T03:15:18;95325.72;;;5.99;100.00
43878;BME280;29815;48.184;11.268;2022-10-01T03:17:51;95322.97;;;5.94;100.00
43878;BME280;29815;48.184;11.268;2022-10-01T03:20:20;95322.41;;;5.92;100.00
43878;BME280;29815;48.184;11.268;2022-10-01T03:22:50;95320.00;;;5.91;100.00
43878;BME280;29815;48.184;11.268;2022-10-01T03:25:19;95324.78;;;5.89;100.00
43878;BME280;29815;48.184;11.268;2022-10-01T03:27:51;95320.81;;;5.91;100.00
43878;BME280;29815;48.184;11.268;2022-10-01T03:30:20;95316.84;;;5.94;100.00
43878;BME280;29815;48.184;11.268;2022-10-01T03:32:51;95312.13;;;6.01;100.00
43878;BME280;29815;48.184;11.268;2022-10-01T03:35:20;95307.94;;;6.10;100.00
43878;BME280;29815;48.184;11.268;2022-10-01T03:37:49;95305.84;;;6.12;100.00
43878;BME280;29815;48.184;11.268;2022-10-01T03:40:19;95303.19;;;6.12;100.00
43878;BME280;29815;48.184;11.268;2022-10-01T03:42:48;95305.09;;;6.17;100.00
43878;BME280;29815;48.184;11.268;2022-10-01T03:45:17;95302.94;;;6.14;100.00
43878;BME280;29815;48.184;11.268;2022-10-01T03:47:51;95301.00;;;6.09;100.00
43878;BME280;29815;48.184;11.268;2022-10-01T03:50:20;95293.78;;;6.09;100.00
43878;BME280;29815;48.184;11.268;2022-10-01T03:52:49;95309.00;;;6.09;100.00
43878;BME280;29815;48.184;11.268;2022-10-01T03:55:19;95307.16;;;6.09;100.00
43878;BME280;29815;48.184;11.268;2022-10-01T03:57:48;95301.25;;;6.07;100.00
43878;BME280;29815;48.184;11.268;2022-10-01T04:00:17;95300.69;;;6.05;100.00
43878;BME280;29815;48.184;11.268;2022-10-01T04:02:46;95300.91;;;6.04;100.00
43878;BME280;29815;48.184;11.268;2022-10-01T04:05:17;95296.94;;;6.06;100.00
43878;BME280;29815;48.184;11.268;2022-10-01T04:07:46;95295.34;;;6.05;100.00
43878;BME280;29815;48.184;11.268;2022-10-01T04:10:17;95292.09;;;6.03;100.00
43878;BME280;29815;48.184;11.268;2022-10-01T04:12:46;95296.38;;;6.04;100.00
43878;BME280;29815;48.184;11.268;2022-10-01T04:15:15;95303.50;;;6.16;100.00
43878;BME280;29815;48.184;11.268;2022-10-01T04:17:45;95297.78;;;6.29;100.00
43878;BME280;29815;48.184;11.268;2022-10-01T04:20:14;95311.16;;;6.29;100.00
43878;BME280;29815;48.184;11.268;2022-10-01T04:22:44;95320.75;;;6.30;100.00
43878;BME280;29815;48.184;11.268;2022-10-01T04:25:14;95317.28;;;6.29;100.00
43878;BME280;29815;48.184;11.268;2022-10-01T04:27:53;95307.34;;;6.25;100.00
43878;BME280;29815;48.184;11.268;2022-10-01T04:30:25;95309.72;;;6.21;100.00
43878;BME280;29815;48.184;11.268;2022-10-01T04:32:55;95308.66;;;6.22;100.00
43878;BME280;29815;48.184;11.268;2022-10-01T04:35:25;95313.19;;;6.22;100.00
43878;BME280;29815;48.184;11.268;2022-10-01T04:37:57;95308.53;;;6.34;100.00
43878;BME280;29815;48.184;11.268;2022-10-01T04:40:28;95309.41;;;6.39;100.00
43878;BME280;29815;48.184;11.268;2022-10-01T04:42:58;95309.22;;;6.46;100.00
43878;BME280;29815;48.184;11.268;2022-10-01T04:45:27;95309.03;;;6.53;100.00
43878;BME280;29815;48.184;11.268;2022-10-01T04:47:56;95313.59;;;6.57;100.00
43878;BME280;29815;48.184;11.268;2022-10-01T04:50:26;95302.97;;;6.62;100.00
43878;BME280;29815;48.184;11.268;2022-10-01T04:52:56;95301.97;;;6.68;100.00
43878;BME280;29815;48.184;11.268;2022-10-01T04:55:25;95300.41;;;6.72;100.00
43878;BME280;29815;48.184;11.268;2022-10-01T04:57:55;95299.59;;;6.72;100.00
43878;BME280;29815;48.184;11.268;2022-10-01T05:00:24;95293.19;;;6.73;100.00
43878;BME280;29815;48.184;11.268;2022-10-01T05:02:54;95297.75;;;6.72;100.00
43878;BME280;29815;48.184;11.268;2022-10-01T05:05:24;95288.66;;;6.73;100.00
43878;BME280;29815;48.184;11.268;2022-10-01T05:07:57;95288.09;;;6.71;100.00
43878;BME280;29815;48.184;11.268;2022-10-01T05:10:26;95291.31;;;6.73;100.00
43878;BME280;29815;48.184;11.268;2022-10-01T05:12:55;95288.91;;;6.72;100.00
43878;BME280;29815;48.184;11.268;2022-10-01T05:15:28;95303.09;;;6.72;100.00
43878;BME280;29815;48.184;11.268;2022-10-01T05:17:58;95301.78;;;6.75;100.00
43878;BME280;29815;48.184;11.268;2022-10-01T05:20:53;95309.06;;;6.79;100.00
43878;BME280;29815;48.184;11.268;2022-10-01T05:23:24;95308.81;;;6.81;100.00
43878;BME280;29815;48.184;11.268;2022-10-01T05:25:53;95310.41;;;6.82;100.00
43878;BME280;29815;48.184;11.268;2022-10-01T05:28:22;95304.03;;;6.88;100.00
43878;BME280;29815;48.184;11.268;2022-10-01T05:30:53;95298.44;;;6.90;100.00
43878;BME280;29815;48.184;11.268;2022-10-01T05:33:23;95300.34;;;6.94;100.00
43878;BME280;29815;48.184;11.268;2022-10-01T05:35:52;95304.44;;;7.02;100.00
43878;BME280;29815;48.184;11.268;2022-10-01T05:38:21;95307.75;;;7.09;100.00
43878;BME280;29815;48.184;11.268;2022-10-01T05:40:52;95310.69;;;7.12;100.00
43878;BME280;29815;48.184;11.268;2022-10-01T05:43:22;95315.59;;;7.21;100.00
43878;BME280;29815;48.184;11.268;2022-10-01T05:45:54;95314.88;;;7.30;100.00
43878;BME280;29815;48.184;11.268;2022-10-01T05:48:24;95318.09;;;7.32;100.00
43878;BME280;29815;48.184;11.268;2022-10-01T05:50:53;95316.28;;;7.38;100.00
43878;BME280;29815;48.184;11.268;2022-10-01T05:53:23;95317.34;;;7.37;100.00
43878;BME280;29815;48.184;11.268;2022-10-01T05:55:54;95325.41;;;7.42;100.00
43878;BME280;29815;48.184;11.268;2022-10-01T05:58:23;95324.69;;;7.52;100.00
43878;BME280;29815;48.184;11.268;2022-10-01T06:00:53;95323.91;;;7.56;100.00
43878;BME280;29815;48.184;11.268;2022-10-01T06:03:23;95333.31;;;7.59;100.00
43878;BME280;29815;48.184;11.268;2022-10-01T06:05:55;95330.63;;;7.59;100.00
43878;BME280;29815;48.184;11.268;2022-10-01T06:08:24;95335.78;;;7.65;100.00
43878;BME280;29815;48.184;11.268;2022-10-01T06:10:59;95331.25;;;7.66;100.00
43878;BME280;29815;48.184;11.268;2022-10-01T06:13:30;95326.94;;;7.65;100.00
43878;BME280;29815;48.184;11.268;2022-10-01T06:15:59;95327.22;;;7.68;100.00
43878;BME280;29815;48.184;11.268;2022-10-01T06:18:29;95321.34;;;7.71;100.00
43878;BME280;29815;48.184;11.268;2022-10-01T06:20:58;95324.06;;;7.76;100.00
43878;BME280;29815;48.184;11.268;2022-10-01T06:23:28;95319.81;;;7.80;100.00
43878;BME280;29815;48.184;11.268;2022-10-01T06:25:59;95322.28;;;7.87;100.00
43878;BME280;29815;48.184;11.268;2022-10-01T06:28:29;95326.06;;;7.91;100.00
43878;BME280;29815;48.184;11.268;2022-10-01T06:31:00;95330.34;;;7.97;100.00
43878;BME280;29815;48.184;11.268;2022-10-01T06:33:30;95325.53;;;7.99;100.00
43878;BME280;29815;48.184;11.268;2022-10-01T06:35:59;95329.88;;;8.05;100.00
43878;BME280;29815;48.184;11.268;2022-10-01T06:38:29;95329.38;;;8.08;100.00
43878;BME280;29815;48.184;11.268;2022-10-01T06:41:01;95329.66;;;8.12;100.00
43878;BME280;29815;48.184;11.268;2022-10-01T06:43:32;95320.03;;;8.16;100.00
43878;BME280;29815;48.184;11.268;2022-10-01T06:46:02;95323.25;;;8.23;100.00
43878;BME280;29815;48.184;11.268;2022-10-01T06:48:32;95321.94;;;8.26;100.00
43878;BME280;29815;48.184;11.268;2022-10-01T06:51:03;95324.91;;;8.29;100.00
43878;BME280;29815;48.184;11.268;2022-10-01T06:53:32;95318.22;;;8.32;100.00
43878;BME280;29815;48.184;11.268;2022-10-01T06:56:04;95322.84;;;8.36;100.00
43878;BME280;29815;48.184;11.268;2022-10-01T06:58:34;95321.25;;;8.40;100.00
43878;BME280;29815;48.184;11.268;2022-10-01T07:01:04;95321.28;;;8.45;100.00
43878;BME280;29815;48.184;11.268;2022-10-01T07:03:33;95308.13;;;8.49;100.00
43878;BME280;29815;48.184;11.268;2022-10-01T07:06:05;95304.91;;;8.52;100.00
43878;BME280;29815;48.184;11.268;2022-10-01T07:08:35;95309.25;;;8.58;100.00
43878;BME280;29815;48.184;11.268;2022-10-01T07:11:07;95300.41;;;8.63;100.00
43878;BME280;29815;48.184;11.268;2022-10-01T07:13:36;95298.56;;;8.68;100.00
43878;BME280;29815;48.184;11.268;2022-10-01T07:16:05;95298.84;;;8.72;100.00
43878;BME280;29815;48.184;11.268;2022-10-01T07:18:34;95284.91;;;8.75;100.00
43878;BME280;29815;48.184;11.268;2022-10-01T07:21:03;95292.38;;;8.78;100.00
43878;BME280;29815;48.184;11.268;2022-10-01T07:23:32;95279.25;;;8.81;100.00
43878;BME280;29815;48.184;11.268;2022-10-01T07:26:03;95283.28;;;8.84;100.00
43878;BME280;29815;48.184;11.268;2022-10-01T07:28:34;95281.69;;;8.88;100.00
43878;BME280;29815;48.184;11.268;2022-10-01T07:31:04;95282.25;;;8.90;100.00
43878;BME280;29815;48.184;11.268;2022-10-01T07:33:36;95282.78;;;8.97;100.00
43878;BME280;29815;48.184;11.268;2022-10-01T07:36:07;95273.66;;;9.03;100.00
43878;BME280;29815;48.184;11.268;2022-10-01T07:38:38;95281.97;;;9.07;100.00
43878;BME280;29815;48.184;11.268;2022-10-01T07:41:08;95275.28;;;9.14;100.00
43878;BME280;29815;48.184;11.268;2022-10-01T07:43:38;95277.72;;;9.21;100.00
43878;BME280;29815;48.184;11.268;2022-10-01T07:46:09;95279.84;;;9.34;100.00
43878;BME280;29815;48.184;11.268;2022-10-01T07:48:38;95264.81;;;9.38;100.00
43878;BME280;29815;48.184;11.268;2022-10-01T07:51:07;95279.06;;;9.44;100.00
43878;BME280;29815;48.184;11.268;2022-10-01T07:53:36;95271.28;;;9.53;100.00
43878;BME280;29815;48.184;11.268;2022-10-01T07:56:06;95270.72;;;9.61;100.00
43878;BME280;29815;48.184;11.268;2022-10-01T07:58:35;95266.69;;;9.73;100.00
43878;BME280;29815;48.184;11.268;2022-10-01T08:01:06;95272.59;;;9.75;100.00
43878;BME280;29815;48.184;11.268;2022-10-01T08:03:36;95274.19;;;9.76;100.00
43878;BME280;29815;48.184;11.268;2022-10-01T08:06:05;95269.63;;;9.77;100.00
43878;BME280;29815;48.184;11.268;2022-10-01T08:08:34;95268.81;;;9.81;100.00
43878;BME280;29815;48.184;11.268;2022-10-01T08:11:03;95270.97;;;9.84;100.00
43878;BME280;29815;48.184;11.268;2022-10-01T08:13:33;95271.47;;;9.87;100.00
43878;BME280;29815;48.184;11.268;2022-10-01T08:16:03;95270.66;;;9.91;100.00
43878;BME280;29815;48.184;11.268;2022-10-01T08:18:35;95266.38;;;9.90;100.00
43878;BME280;29815;48.184;11.268;2022-10-01T08:21:07;95265.25;;;10.06;100.00
43878;BME280;29815;48.184;11.268;2022-10-01T08:23:36;95261.50;;;10.02;100.00
43878;BME280;29815;48.184;11.268;2022-10-01T08:26:06;95258.28;;;10.05;100.00
43878;BME280;29815;48.184;11.268;2022-10-01T08:28:35;95261.22;;;10.09;100.00
43878;BME280;29815;48.184;11.268;2022-10-01T08:31:05;95254.47;;;10.16;100.00
43878;BME280;29815;48.184;11.268;2022-10-01T08:33:37;95255.28;;;10.17;100.00
43878;BME280;29815;48.184;11.268;2022-10-01T08:36:06;95253.38;;;10.28;100.00
43878;BME280;29815;48.184;11.268;2022-10-01T08:38:36;95245.06;;;10.24;100.00
43878;BME280;29815;48.184;11.268;2022-10-01T08:41:11;95238.34;;;10.27;100.00
43878;BME280;29815;48.184;11.268;2022-10-01T08:43:50;95251.22;;;10.35;100.00
43878;BME280;29815;48.184;11.268;2022-10-01T08:46:22;95241.25;;;10.35;100.00
43878;BME280;29815;48.184;11.268;2022-10-01T08:48:58;95235.00;;;10.45;100.00
43878;BME280;29815;48.184;11.268;2022-10-01T08:51:31;95244.13;;;10.54;100.00
43878;BME280;29815;48.184;11.268;2022-10-01T08:54:08;95242.75;;;10.62;100.00
43878;BME280;29815;48.184;11.268;2022-10-01T08:56:47;95243.56;;;10.62;100.00
43878;BME280;29815;48.184;11.268;2022-10-01T08:59:28;95249.41;;;10.69;100.00
43878;BME280;29815;48.184;11.268;2022-10-01T09:02:17;95243.72;;;10.76;100.00
43878;BME280;29815;48.184;11.268;2022-10-01T09:04:50;95242.38;;;10.78;100.00
43878;BME280;29815;48.184;11.268;2022-10-01T09:07:37;95238.81;;;10.88;100.00
43878;BME280;29815;48.184;11.268;2022-10-01T09:10:30;95236.59;;;10.95;100.00
43878;BME280;29815;48.184;11.268;2022-10-01T09:13:36;95237.91;;;11.03;100.00
43878;BME280;29815;48.184;11.268;2022-10-01T09:16:19;95238.13;;;11.11;100.00
43878;BME280;29815;48.184;11.268;2022-10-01T09:19:00;95251.28;;;11.18;100.00
43878;BME280;29815;48.184;11.268;2022-10-01T09:21:46;95259.63;;;11.16;100.00
43878;BME280;29815;48.184;11.268;2022-10-01T09:24:27;95243.19;;;11.18;100.00
43878;BME280;29815;48.184;11.268;2022-10-01T09:27:10;95244.00;;;11.18;100.00
43878;BME280;29815;48.184;11.268;2022-10-01T09:29:45;95252.91;;;11.14;100.00
43878;BME280;29815;48.184;11.268;2022-10-01T09:32:19;95242.91;;;11.19;100.00
43878;BME280;29815;48.184;11.268;2022-10-01T09:34:50;95252.88;;;11.19;100.00
43878;BME280;29815;48.184;11.268;2022-10-01T09:37:24;95248.88;;;11.16;100.00
43878;BME280;29815;48.184;11.268;2022-10-01T09:40:04;95250.75;;;11.16;100.00
43878;BME280;29815;48.184;11.268;2022-10-01T09:42:42;95251.63;;;11.06;100.00
43878;BME280;29815;48.184;11.268;2022-10-01T09:45:12;95260.75;;;11.10;100.00
43878;BME280;29815;48.184;11.268;2022-10-01T09:47:42;95249.50;;;10.98;100.00
43878;BME280;29815;48.184;11.268;2022-10-01T09:50:13;95258.91;;;11.01;100.00
43878;BME280;29815;48.184;11.268;2022-10-01T09:52:48;95257.28;;;11.05;100.00
43878;BME280;29815;48.184;11.268;2022-10-01T09:55:24;95263.25;;;10.97;100.00
43878;BME280;29815;48.184;11.268;2022-10-01T09:58:00;95246.34;;;10.91;100.00
43878;BME280;29815;48.184;11.268;2022-10-01T10:00:31;95248.53;;;10.84;100.00
43878;BME280;29815;48.184;11.268;2022-10-01T10:03:00;95257.75;;;10.73;100.00
43878;BME280;29815;48.184;11.268;2022-10-01T10:05:39;95257.75;;;10.73;100.00
43878;BME280;29815;48.184;11.268;2022-10-01T10:08:13;95259.66;;;10.67;100.00
43878;BME280;29815;48.184;11.268;2022-10-01T10:10:48;95254.59;;;10.61;100.00
43878;BME280;29815;48.184;11.268;2022-10-01T10:13:21;95257.03;;;10.57;100.00
43878;BME280;29815;48.184;11.268;2022-10-01T10:15:54;95261.88;;;10.55;100.00
43878;BME280;29815;48.184;11.268;2022-10-01T10:18:27;95261.63;;;10.46;100.00
43878;BME280;29815;48.184;11.268;2022-10-01T10:20:57;95249.81;;;10.42;100.00
43878;BME280;29815;48.184;11.268;2022-10-01T10:23:28;95251.75;;;10.37;100.00
43878;BME280;29815;48.184;11.268;2022-10-01T10:25:59;95251.22;;;10.35;100.00
43878;BME280;29815;48.184;11.268;2022-10-01T10:28:38;95256.59;;;10.35;100.00
43878;BME280;29815;48.184;11.268;2022-10-01T10:31:13;95275.69;;;10.38;100.00
43878;BME280;29815;48.184;11.268;2022-10-01T10:33:46;95269.25;;;10.34;100.00
43878;BME280;29815;48.184;11.268;2022-10-01T10:36:16;95269.25;;;10.34;100.00
43878;BME280;29815;48.184;11.268;2022-10-01T10:38:49;95273.28;;;10.32;100.00
43878;BME280;29815;48.184;11.268;2022-10-01T10:41:19;95282.44;;;10.31;100.00
43878;BME280;29815;48.184;11.268;2022-10-01T10:43:54;95282.69;;;10.29;100.00
43878;BME280;29815;48.184;11.268;2022-10-01T10:46:28;95283.78;;;10.28;100.00
43878;BME280;29815;48.184;11.268;2022-10-01T10:49:05;95284.59;;;10.29;100.00
43878;BME280;29815;48.184;11.268;2022-10-01T10:51:47;95274.09;;;10.27;100.00
43878;BME280;29815;48.184;11.268;2022-10-01T10:54:28;95285.41;;;10.29;100.00
43878;BME280;29815;48.184;11.268;2022-10-01T10:57:00;95281.34;;;10.32;100.00
43878;BME280;29815;48.184;11.268;2022-10-01T10:59:32;95278.41;;;10.28;100.00
43878;BME280;29815;48.184;11.268;2022-10-01T11:02:02;95275.72;;;10.28;100.00
43878;BME280;29815;48.184;11.268;2022-10-01T11:04:39;95266.56;;;10.29;100.00
43878;BME280;29815;48.184;11.268;2022-10-01T11:07:10;95272.75;;;10.30;100.00
43878;BME280;29815;48.184;11.268;2022-10-01T11:09:55;95272.22;;;10.33;100.00
43878;BME280;29815;48.184;11.268;2022-10-01T11:12:41;95284.31;;;10.35;100.00
43878;BME280;29815;48.184;11.268;2022-10-01T11:15:23;95281.34;;;10.32;100.00
43878;BME280;29815;48.184;11.268;2022-10-01T11:18:17;95285.13;;;10.31;100.00
43878;BME280;29815;48.184;11.268;2022-10-01T11:20:59;95282.16;;;10.27;100.00
43878;BME280;29815;48.184;11.268;2022-10-01T11:23:51;95281.91;;;10.24;100.00
43878;BME280;29815;48.184;11.268;2022-10-01T11:26:35;95275.19;;;10.21;100.00
43878;BME280;29815;48.184;11.268;2022-10-01T11:29:15;95275.19;;;10.21;100.00
43878;BME280;29815;48.184;11.268;2022-10-01T11:31:57;95281.66;;;10.20;100.00
43878;BME280;29815;48.184;11.268;2022-10-01T11:34:50;95288.09;;;10.19;100.00
43878;BME280;29815;48.184;11.268;2022-10-01T11:37:34;95293.47;;;10.19;100.00
43878;BME280;29815;48.184;11.268;2022-10-01T11:40:16;95292.91;;;10.17;100.00
43878;BME280;29815;48.184;11.268;2022-10-01T11:42:55;95287.81;;;10.15;100.00
43878;BME280;29815;48.184;11.268;2022-10-01T11:45:31;95307.47;;;10.06;100.00
43878;BME280;29815;48.184;11.268;2022-10-01T11:48:07;95306.41;;;10.02;100.00
43878;BME280;29815;48.184;11.268;2022-10-01T11:50:41;95310.19;;;10.01;100.00
43878;BME280;29815;48.184;11.268;2022-10-01T11:53:13;95297.53;;;10.01;100.00
43878;BME280;29815;48.184;11.268;2022-10-01T11:55:47;95283.03;;;10.02;100.00
43878;BME280;29815;48.184;11.268;2022-10-01T11:58:58;95287.06;;;9.95;100.00
43878;BME280;29815;48.184;11.268;2022-10-01T12:01:33;95281.97;;;9.88;100.00
43878;BME280;29815;48.184;11.268;2022-10-01T12:04:18;95281.69;;;9.95;100.00
43878;BME280;29815;48.184;11.268;2022-10-01T12:07:02;95286.00;;;9.91;100.00
43878;BME280;29815;48.184;11.268;2022-10-01T12:09:44;95290.03;;;9.88;100.00
43878;BME280;29815;48.184;11.268;2022-10-01T12:12:21;95294.31;;;9.94;100.00
43878;BME280;29815;48.184;11.268;2022-10-01T12:15:01;95297.28;;;9.88;100.00
43878;BME280;29815;48.184;11.268;2022-10-01T12:17:40;95288.69;;;9.91;100.00
43878;BME280;29815;48.184;11.268;2022-10-01T12:20:22;95293.50;;;9.94;100.00
43878;BME280;29815;48.184;11.268;2022-10-01T12:22:54;95297.84;;;9.84;100.00
43878;BME280;29815;48.184;11.268;2022-10-01T12:25:44;95299.69;;;9.89;100.00
43878;BME280;29815;48.184;11.268;2022-10-01T12:28:20;95299.97;;;9.88;100.00
43878;BME280;29815;48.184;11.268;2022-10-01T12:30:59;95297.28;;;9.88;100.00
43878;BME280;29815;48.184;11.268;2022-10-01T12:33:38;95292.75;;;9.83;100.00
43878;BME280;29815;48.184;11.268;2022-10-01T12:36:27;95298.34;;;9.87;100.00
43878;BME280;29815;48.184;11.268;2022-10-01T12:39:17;95291.38;;;9.85;100.00
43878;BME280;29815;48.184;11.268;2022-10-01T12:42:01;95283.88;;;9.82;100.00
43878;BME280;29815;48.184;11.268;2022-10-01T12:44:47;95283.34;;;9.80;100.00
43878;BME280;29815;48.184;11.268;2022-10-01T12:47:35;95277.69;;;9.82;100.00
43878;BME280;29815;48.184;11.268;2022-10-01T12:50:21;95275.00;;;9.82;100.00
43878;BME280;29815;48.184;11.268;2022-10-01T12:53:12;95271.50;;;9.81;100.00
43878;BME280;29815;48.184;11.268;2022-10-01T12:56:02;95275.53;;;9.84;100.00
43878;BME280;29815;48.184;11.268;2022-10-01T12:59:07;95275.00;;;9.82;100.00
43878;BME280;29815;48.184;11.268;2022-10-01T13:01:57;95270.16;;;9.84;100.00
43878;BME280;29815;48.184;11.268;2022-10-01T13:04:48;95275.53;;;9.84;100.00
43878;BME280;29815;48.184;11.268;2022-10-01T13:07:43;95273.66;;;9.84;100.00
43878;BME280;29815;48.184;11.268;2022-10-01T13:10:27;95263.72;;;9.80;100.00
43878;BME280;29815;48.184;11.268;2022-10-01T13:13:04;95276.88;;;9.81;100.00
43878;BME280;29815;48.184;11.268;2022-10-01T13:15:39;95267.97;;;9.86;100.00
43878;BME280;29815;48.184;11.268;2022-10-01T13:18:22;95276.31;;;9.90;100.00
43878;BME280;29815;48.184;11.268;2022-10-01T13:21:07;95273.63;;;9.95;100.00
43878;BME280;29815;48.184;11.268;2022-10-01T13:23:43;95259.66;;;9.93;100.00
43878;BME280;29815;48.184;11.268;2022-10-01T13:26:20;95260.72;;;9.97;100.00
43878;BME280;29815;48.184;11.268;2022-10-01T13:29:06;95252.91;;;10.05;100.00